Saturday, November 18, 2017, 6:24 AM GMT
Back to Local

CYSJ, Saint John, N. B.

Location: , , Canada Lat: 45.333
Local Time: 6:24 AM GMT ( 6:24 GMT) Lon: -65.883
Time Zone: GMT Elev: 337 ft

Show me the last for .
Show Coded

Time T Td Feel RH Dir Speed Gust Alt SLP Vis Weather Sky Remarks
2017-11-18 06:00 28 21 13 74 310° 17 28 29.69 29.71 15 OVC024 Pressure rising rapidly
2017-11-18 05:00 28 21 12 74 310° 20 31 29.67 29.68 15 BKN022 OVC030 None
2017-11-18 04:00 30 21 15 68 320° 17 29 29.66 29.68 15 BKN023 OVC060 None
2017-11-18 03:00 30 23 15 74 310° 21 32 29.64 29.65 15 OVC023 None
2017-11-18 02:00 30 23 15 74 310° 20 32 29.62 29.63 15 OVC024 None
2017-11-18 01:00 32 25 17 74 310° 24 35 29.58 29.60 15 OVC023 None
2017-11-18 00:00 32 25 18 74 310° 22 30 29.58 29.60 10 OVC021 None
2017-11-17 23:00 34 27 20 74 310° 21 31 29.57 29.59 10 OVC021 None
2017-11-17 22:00 34 27 20 74 300° 15 29 29.55 29.57 10 OVC022 Pressure rising rapidly
2017-11-17 21:00 36 30 23 80 290° 15 28 29.51 29.52 10 OVC018 Pressure rising rapidly
2017-11-17 20:06 37 30 23 74 310° 29 41 29.46 29.47 10 BKN021 None
2017-11-17 20:00 37 30 23 74 310° 31 40 29.46 29.47 10 BKN020 None
2017-11-17 19:00 37 32 23 80 310° 28 40 29.42 29.44 10 OVC019 None
2017-11-17 18:00 39 34 26 80 310° 26 38 29.40 29.41 10 OVC016 None
2017-11-17 17:39 39 36 27 86 300° 24 35 29.38 29.40 10 BKN014 None
2017-11-17 17:00 37 36 24 93 300° 25 35 29.36 29.38 5 -RA BR BKN011 OVC021 None
2017-11-17 16:00 37 36 25 93 290° 14 29 29.36 29.38 5 -RA BR BKN011 OVC015 None
2017-11-17 15:28 37 36 25 93 290° 15 28 29.35 29.36 5 -RA BR OVC010 None
2017-11-17 15:00 36 34 23 93 290° 18 25 29.34 29.36 3 -RASN BR OVC008 None
2017-11-17 14:18 36 34 23 93 290° 16 26 29.32 29.34 3 -RASN BR BKN008 OVC013 None
2017-11-17 14:15 36 34 23 93 280° 16 25 29.32 29.33 3 -RA BR BKN008 OVC013 None
2017-11-17 14:00 37 36 25 93 280° 12 28 29.32 29.33 5 -RA BR BKN009 OVC013 None
2017-11-17 13:00 37 36 27 93 280° 14 22 29.31 29.32 5 -RA BR OVC008 None
2017-11-17 12:00 39 37 28 93 270° 10 28 29.30 29.31 9 -RA BKN009 None
2017-11-17 11:15 41 39 31 93 260° 10 22 29.28 29.29 9 -RA BKN009 OVC030 None
2017-11-17 11:00 41 41 32 100 280° 12 20 29.29 29.30 6 -RA BR BKN006 OVC021 None
2017-11-17 10:38 43 41 36 93 280° 14 - 29.27 29.28 5 -RA BR BKN006 OVC022 None
2017-11-17 10:00 43 43 34 100 270° 12 21 29.27 29.28 2 -RA BR OVC004 None
2017-11-17 09:20 45 43 39 93 240° 12 - 29.24 29.26 2 -RA BR OVC005 None
2017-11-17 09:08 45 45 39 100 260° 12 - 29.23 29.25 2 BR OVC003 Wind Shift: 58 min
2017-11-17 09:00 46 45 41 93 210° 12 - 29.23 29.24 2 BR BKN003 OVC040 None
2017-11-17 08:52 46 46 40 100 200° 14 - 29.23 29.24 2 BR BKN003 OVC040 None
2017-11-17 08:00 50 48 46 93 140° 10 - 29.25 29.26 6 BR SCT010 OVC040 Pressure falling rapidly
2017-11-17 07:00 50 50 43 100 120° 17 23 29.30 29.31 3 -RA BR OVC009 None

Support USWX by starting your Amazon purchase here.